Dixie, Kentucky
Current Conditions -  °F | °C
As of 7:17 PM on Wednesday 28 Jan 2015 (Local Time) from KI69 Reporting Station
Clear Clear  
Wind Chill: 32°   Ceiling: Unl
Heat Index: 32°   Visibility: 10mi
Dew Point: 21°   Wind: 3mph
Humidity: 64%   Direction: 140°SE
Pressure: 30.24"   Gusts: NA
Location:  39.0279°N, 84.5635°W
Report Text: KI69 290017Z AUTO 14003KT 10SM CLR 00/M06 A3024 RMK AO1
Loading
Personal Weather Stations






























Interactive Weather Map New forecast layout! Learn more

10-Day Weather Forecast

Advertisements
Track Severe Weather on mobile